sensor_id;sensor_type;location;lat;lon;timestamp;temperature;humidity
55036;DHT22;40936;53.008;6.556;2022-12-05T00:01:23;7.50;1.00
55036;DHT22;40936;53.008;6.556;2022-12-05T00:03:50;7.50;1.00
55036;DHT22;40936;53.008;6.556;2022-12-05T00:06:17;8.50;1.00
55036;DHT22;40936;53.008;6.556;2022-12-05T00:08:43;6.80;1.00
55036;DHT22;40936;53.008;6.556;2022-12-05T00:11:17;6.80;1.00
55036;DHT22;40936;53.008;6.556;2022-12-05T00:13:43;6.80;1.00
55036;DHT22;40936;53.008;6.556;2022-12-05T00:16:11;8.20;1.00
55036;DHT22;40936;53.008;6.556;2022-12-05T00:18:37;6.00;1.00
55036;DHT22;40936;53.008;6.556;2022-12-05T00:21:04;8.10;1.00
55036;DHT22;40936;53.008;6.556;2022-12-05T00:23:30;6.80;1.00
55036;DHT22;40936;53.008;6.556;2022-12-05T00:25:56;7.10;1.00
55036;DHT22;40936;53.008;6.556;2022-12-05T00:28:21;6.80;1.00
55036;DHT22;40936;53.008;6.556;2022-12-05T00:30:47;6.80;1.00
55036;DHT22;40936;53.008;6.556;2022-12-05T00:33:13;6.80;1.00
55036;DHT22;40936;53.008;6.556;2022-12-05T00:35:38;7.10;1.00
55036;DHT22;40936;53.008;6.556;2022-12-05T00:40:30;6.80;1.00
55036;DHT22;40936;53.008;6.556;2022-12-05T00:42:56;7.00;1.00
55036;DHT22;40936;53.008;6.556;2022-12-05T00:45:21;6.80;1.00
55036;DHT22;40936;53.008;6.556;2022-12-05T00:47:47;8.50;1.00
55036;DHT22;40936;53.008;6.556;2022-12-05T00:50:12;8.50;1.00
55036;DHT22;40936;53.008;6.556;2022-12-05T00:52:38;8.40;1.00
55036;DHT22;40936;53.008;6.556;2022-12-05T00:55:04;7.70;1.00
55036;DHT22;40936;53.008;6.556;2022-12-05T00:57:31;6.90;1.00
55036;DHT22;40936;53.008;6.556;2022-12-05T00:59:56;6.90;1.00
55036;DHT22;40936;53.008;6.556;2022-12-05T01:02:22;5.30;1.00
55036;DHT22;40936;53.008;6.556;2022-12-05T01:04:48;6.90;1.00
55036;DHT22;40936;53.008;6.556;2022-12-05T01:07:13;8.30;1.00
55036;DHT22;40936;53.008;6.556;2022-12-05T01:09:39;7.00;1.00
55036;DHT22;40936;53.008;6.556;2022-12-05T01:12:05;8.50;1.00
55036;DHT22;40936;53.008;6.556;2022-12-05T01:14:30;6.60;1.00
55036;DHT22;40936;53.008;6.556;2022-12-05T01:16:56;6.70;1.00
55036;DHT22;40936;53.008;6.556;2022-12-05T01:19:27;7.70;1.00
55036;DHT22;40936;53.008;6.556;2022-12-05T01:21:54;6.80;1.00
55036;DHT22;40936;53.008;6.556;2022-12-05T01:24:21;7.10;1.00
55036;DHT22;40936;53.008;6.556;2022-12-05T01:26:47;7.20;1.00
55036;DHT22;40936;53.008;6.556;2022-12-05T01:29:15;7.10;1.00
55036;DHT22;40936;53.008;6.556;2022-12-05T01:31:42;7.10;1.00
55036;DHT22;40936;53.008;6.556;2022-12-05T01:34:11;7.10;1.00
55036;DHT22;40936;53.008;6.556;2022-12-05T01:36:37;7.10;1.00
55036;DHT22;40936;53.008;6.556;2022-12-05T01:39:04;7.10;1.00
55036;DHT22;40936;53.008;6.556;2022-12-05T01:41:34;7.20;1.00
55036;DHT22;40936;53.008;6.556;2022-12-05T01:44:04;7.20;1.00
55036;DHT22;40936;53.008;6.556;2022-12-05T01:46:35;7.20;1.00
55036;DHT22;40936;53.008;6.556;2022-12-05T01:49:26;7.20;1.00
55036;DHT22;40936;53.008;6.556;2022-12-05T01:51:59;7.50;1.00
55036;DHT22;40936;53.008;6.556;2022-12-05T01:54:26;7.20;1.00
55036;DHT22;40936;53.008;6.556;2022-12-05T01:56:57;7.20;1.00
55036;DHT22;40936;53.008;6.556;2022-12-05T01:59:26;7.20;1.00
55036;DHT22;40936;53.008;6.556;2022-12-05T02:01:54;7.70;1.00
55036;DHT22;40936;53.008;6.556;2022-12-05T02:04:19;8.40;1.00
55036;DHT22;40936;53.008;6.556;2022-12-05T02:06:45;7.20;1.00
55036;DHT22;40936;53.008;6.556;2022-12-05T02:09:11;7.20;1.00
55036;DHT22;40936;53.008;6.556;2022-12-05T02:11:48;7.20;3.20
55036;DHT22;40936;53.008;6.556;2022-12-05T02:14:58;7.20;5.10
55036;DHT22;40936;53.008;6.556;2022-12-05T02:17:24;7.20;22.40
55036;DHT22;40936;53.008;6.556;2022-12-05T02:20:16;7.20;45.30
55036;DHT22;40936;53.008;6.556;2022-12-05T02:31:42;7.60;93.40
55036;DHT22;40936;53.008;6.556;2022-12-05T02:34:30;7.00;91.70
55036;DHT22;40936;53.008;6.556;2022-12-05T02:37:13;7.20;91.50
55036;DHT22;40936;53.008;6.556;2022-12-05T02:45:23;7.20;99.90
55036;DHT22;40936;53.008;6.556;2022-12-05T02:47:52;7.80;99.90
55036;DHT22;40936;53.008;6.556;2022-12-05T02:50:21;7.50;99.90
55036;DHT22;40936;53.008;6.556;2022-12-05T02:52:50;7.20;99.90
55036;DHT22;40936;53.008;6.556;2022-12-05T02:55:18;7.20;99.90
55036;DHT22;40936;53.008;6.556;2022-12-05T02:57:49;7.20;99.90
55036;DHT22;40936;53.008;6.556;2022-12-05T03:00:17;8.30;99.90
55036;DHT22;40936;53.008;6.556;2022-12-05T03:02:42;7.20;99.90
55036;DHT22;40936;53.008;6.556;2022-12-05T03:08:02;7.20;99.90
55036;DHT22;40936;53.008;6.556;2022-12-05T03:10:30;7.40;99.90
55036;DHT22;40936;53.008;6.556;2022-12-05T03:13:01;7.30;99.90
55036;DHT22;40936;53.008;6.556;2022-12-05T03:15:37;8.30;99.90
55036;DHT22;40936;53.008;6.556;2022-12-05T03:18:12;6.90;99.90
55036;DHT22;40936;53.008;6.556;2022-12-05T03:20:47;7.30;99.90
55036;DHT22;40936;53.008;6.556;2022-12-05T03:23:23;8.30;99.90
55036;DHT22;40936;53.008;6.556;2022-12-05T03:25:55;8.70;99.90
55036;DHT22;40936;53.008;6.556;2022-12-05T03:28:48;8.50;99.90
55036;DHT22;40936;53.008;6.556;2022-12-05T03:31:23;7.30;99.90
55036;DHT22;40936;53.008;6.556;2022-12-05T03:33:56;8.70;99.90
55036;DHT22;40936;53.008;6.556;2022-12-05T03:36:30;7.40;99.90
55036;DHT22;40936;53.008;6.556;2022-12-05T03:39:02;8.30;99.90
55036;DHT22;40936;53.008;6.556;2022-12-05T03:41:40;7.40;99.90
55036;DHT22;40936;53.008;6.556;2022-12-05T03:44:14;7.40;99.90
55036;DHT22;40936;53.008;6.556;2022-12-05T03:46:59;7.40;99.90
55036;DHT22;40936;53.008;6.556;2022-12-05T03:50:00;8.80;1.00
55036;DHT22;40936;53.008;6.556;2022-12-05T03:52:32;7.50;1.00
55036;DHT22;40936;53.008;6.556;2022-12-05T03:55:01;7.40;1.00
55036;DHT22;40936;53.008;6.556;2022-12-05T03:57:39;7.40;1.00
55036;DHT22;40936;53.008;6.556;2022-12-05T04:00:12;7.40;1.00
55036;DHT22;40936;53.008;6.556;2022-12-05T04:03:03;6.40;1.00
55036;DHT22;40936;53.008;6.556;2022-12-05T04:08:34;7.40;1.00
55036;DHT22;40936;53.008;6.556;2022-12-05T04:11:02;7.70;1.30
55036;DHT22;40936;53.008;6.556;2022-12-05T04:13:43;7.40;1.00
55036;DHT22;40936;53.008;6.556;2022-12-05T04:16:21;7.00;1.00
55036;DHT22;40936;53.008;6.556;2022-12-05T04:21:47;7.70;1.00
55036;DHT22;40936;53.008;6.556;2022-12-05T04:24:20;8.20;32.70
55036;DHT22;40936;53.008;6.556;2022-12-05T04:32:33;9.20;99.90
55036;DHT22;40936;53.008;6.556;2022-12-05T04:35:03;7.40;99.90
55036;DHT22;40936;53.008;6.556;2022-12-05T04:37:33;7.50;99.90
55036;DHT22;40936;53.008;6.556;2022-12-05T04:40:06;7.50;99.90
55036;DHT22;40936;53.008;6.556;2022-12-05T04:42:36;7.40;99.90
55036;DHT22;40936;53.008;6.556;2022-12-05T04:45:05;9.20;99.90
55036;DHT22;40936;53.008;6.556;2022-12-05T04:47:38;7.50;99.90
55036;DHT22;40936;53.008;6.556;2022-12-05T04:50:09;7.50;99.90
55036;DHT22;40936;53.008;6.556;2022-12-05T04:52:36;8.10;99.90
55036;DHT22;40936;53.008;6.556;2022-12-05T04:55:13;8.40;99.90
55036;DHT22;40936;53.008;6.556;2022-12-05T05:00:05;7.50;99.90
55036;DHT22;40936;53.008;6.556;2022-12-05T05:02:46;7.50;99.90
55036;DHT22;40936;53.008;6.556;2022-12-05T05:05:13;7.50;99.90
55036;DHT22;40936;53.008;6.556;2022-12-05T05:07:46;7.50;99.90
55036;DHT22;40936;53.008;6.556;2022-12-05T05:10:15;9.10;99.90
55036;DHT22;40936;53.008;6.556;2022-12-05T05:12:41;6.90;99.90
55036;DHT22;40936;53.008;6.556;2022-12-05T05:15:07;7.50;99.90
55036;DHT22;40936;53.008;6.556;2022-12-05T05:17:33;7.50;99.90
55036;DHT22;40936;53.008;6.556;2022-12-05T05:19:59;7.50;99.90
55036;DHT22;40936;53.008;6.556;2022-12-05T05:22:43;8.00;99.90
55036;DHT22;40936;53.008;6.556;2022-12-05T05:25:09;7.50;99.90
55036;DHT22;40936;53.008;6.556;2022-12-05T05:27:34;9.40;99.90
55036;DHT22;40936;53.008;6.556;2022-12-05T05:30:00;9.30;99.90
55036;DHT22;40936;53.008;6.556;2022-12-05T05:32:25;9.30;99.90
55036;DHT22;40936;53.008;6.556;2022-12-05T05:34:51;7.50;99.90
55036;DHT22;40936;53.008;6.556;2022-12-05T05:37:17;9.00;99.90
55036;DHT22;40936;53.008;6.556;2022-12-05T05:39:42;7.60;99.90
55036;DHT22;40936;53.008;6.556;2022-12-05T05:42:08;7.50;99.90
55036;DHT22;40936;53.008;6.556;2022-12-05T05:44:34;7.60;99.90
55036;DHT22;40936;53.008;6.556;2022-12-05T05:46:59;7.60;99.90
55036;DHT22;40936;53.008;6.556;2022-12-05T05:49:25;7.60;1.00
55036;DHT22;40936;53.008;6.556;2022-12-05T05:51:51;7.50;99.90
55036;DHT22;40936;53.008;6.556;2022-12-05T05:54:16;7.60;1.00
55036;DHT22;40936;53.008;6.556;2022-12-05T05:56:42;7.60;1.00
55036;DHT22;40936;53.008;6.556;2022-12-05T05:59:08;8.30;1.00
55036;DHT22;40936;53.008;6.556;2022-12-05T06:01:34;8.70;1.00
55036;DHT22;40936;53.008;6.556;2022-12-05T06:03:59;9.10;1.00
55036;DHT22;40936;53.008;6.556;2022-12-05T06:06:26;8.90;1.00
55036;DHT22;40936;53.008;6.556;2022-12-05T06:08:52;7.50;1.00
55036;DHT22;40936;53.008;6.556;2022-12-05T06:11:24;7.10;1.00
55036;DHT22;40936;53.008;6.556;2022-12-05T06:13:50;7.60;1.00
55036;DHT22;40936;53.008;6.556;2022-12-05T06:16:17;7.60;1.00
55036;DHT22;40936;53.008;6.556;2022-12-05T06:18:43;7.60;1.00
55036;DHT22;40936;53.008;6.556;2022-12-05T06:21:10;7.60;1.00
55036;DHT22;40936;53.008;6.556;2022-12-05T06:23:37;7.50;1.00
55036;DHT22;40936;53.008;6.556;2022-12-05T06:26:04;7.60;1.00
55036;DHT22;40936;53.008;6.556;2022-12-05T06:28:31;7.60;1.00
55036;DHT22;40936;53.008;6.556;2022-12-05T06:30:57;8.90;1.00
55036;DHT22;40936;53.008;6.556;2022-12-05T06:33:23;8.00;1.00
55036;DHT22;40936;53.008;6.556;2022-12-05T06:35:56;9.10;1.00
55036;DHT22;40936;53.008;6.556;2022-12-05T06:38:25;8.40;1.00
55036;DHT22;40936;53.008;6.556;2022-12-05T06:40:50;7.60;1.00
55036;DHT22;40936;53.008;6.556;2022-12-05T06:43:16;8.70;1.00
55036;DHT22;40936;53.008;6.556;2022-12-05T06:45:42;7.60;70.70
55036;DHT22;40936;53.008;6.556;2022-12-05T06:48:07;9.00;53.00
55036;DHT22;40936;53.008;6.556;2022-12-05T06:50:33;6.20;90.70
55036;DHT22;40936;53.008;6.556;2022-12-05T06:52:59;8.50;79.70
55036;DHT22;40936;53.008;6.556;2022-12-05T06:55:24;7.60;73.30
55036;DHT22;40936;53.008;6.556;2022-12-05T06:57:50;7.60;72.10
55036;DHT22;40936;53.008;6.556;2022-12-05T07:00:16;7.60;82.60
55036;DHT22;40936;53.008;6.556;2022-12-05T07:03:00;7.60;99.90
55036;DHT22;40936;53.008;6.556;2022-12-05T07:05:25;9.30;99.90
55036;DHT22;40936;53.008;6.556;2022-12-05T07:07:51;7.90;99.90
55036;DHT22;40936;53.008;6.556;2022-12-05T07:10:17;8.60;99.90
55036;DHT22;40936;53.008;6.556;2022-12-05T07:12:43;7.60;99.90
55036;DHT22;40936;53.008;6.556;2022-12-05T07:15:09;7.60;99.90
55036;DHT22;40936;53.008;6.556;2022-12-05T07:17:36;7.60;99.90
55036;DHT22;40936;53.008;6.556;2022-12-05T07:20:05;7.80;99.90
55036;DHT22;40936;53.008;6.556;2022-12-05T07:22:33;7.70;99.90
55036;DHT22;40936;53.008;6.556;2022-12-05T07:24:59;7.60;99.90
55036;DHT22;40936;53.008;6.556;2022-12-05T07:27:41;7.70;99.90
55036;DHT22;40936;53.008;6.556;2022-12-05T07:30:07;6.90;99.90
55036;DHT22;40936;53.008;6.556;2022-12-05T07:32:33;7.70;99.90
55036;DHT22;40936;53.008;6.556;2022-12-05T07:34:59;8.50;99.90
55036;DHT22;40936;53.008;6.556;2022-12-05T07:37:24;9.40;99.90
55036;DHT22;40936;53.008;6.556;2022-12-05T07:39:51;7.70;99.90
55036;DHT22;40936;53.008;6.556;2022-12-05T07:42:17;9.60;99.90
55036;DHT22;40936;53.008;6.556;2022-12-05T07:44:43;9.10;99.90
55036;DHT22;40936;53.008;6.556;2022-12-05T07:47:08;7.60;99.90
55036;DHT22;40936;53.008;6.556;2022-12-05T07:49:34;9.60;99.90
55036;DHT22;40936;53.008;6.556;2022-12-05T07:52:00;8.80;99.90
55036;DHT22;40936;53.008;6.556;2022-12-05T07:54:25;7.70;99.90
55036;DHT22;40936;53.008;6.556;2022-12-05T07:56:51;8.00;99.90
55036;DHT22;40936;53.008;6.556;2022-12-05T07:59:17;8.50;99.90
55036;DHT22;40936;53.008;6.556;2022-12-05T08:01:42;8.20;99.90
55036;DHT22;40936;53.008;6.556;2022-12-05T08:04:08;7.60;99.90
55036;DHT22;40936;53.008;6.556;2022-12-05T08:06:34;7.60;99.90
55036;DHT22;40936;53.008;6.556;2022-12-05T08:09:00;8.90;99.90
55036;DHT22;40936;53.008;6.556;2022-12-05T08:11:28;7.60;99.90
55036;DHT22;40936;53.008;6.556;2022-12-05T08:13:56;7.30;99.90
55036;DHT22;40936;53.008;6.556;2022-12-05T08:16:25;7.70;99.90
55036;DHT22;40936;53.008;6.556;2022-12-05T08:19:05;8.80;99.90
55036;DHT22;40936;53.008;6.556;2022-12-05T08:21:32;8.10;99.90
55036;DHT22;40936;53.008;6.556;2022-12-05T08:23:57;8.50;99.90
55036;DHT22;40936;53.008;6.556;2022-12-05T08:26:28;8.10;99.90
55036;DHT22;40936;53.008;6.556;2022-12-05T08:29:04;7.70;99.90
55036;DHT22;40936;53.008;6.556;2022-12-05T08:31:31;7.70;99.90
55036;DHT22;40936;53.008;6.556;2022-12-05T08:33:59;9.10;99.90
55036;DHT22;40936;53.008;6.556;2022-12-05T08:36:28;7.60;99.90
55036;DHT22;40936;53.008;6.556;2022-12-05T08:38:59;9.30;99.90
55036;DHT22;40936;53.008;6.556;2022-12-05T08:41:25;8.90;99.90
55036;DHT22;40936;53.008;6.556;2022-12-05T08:43:56;7.70;99.90
55036;DHT22;40936;53.008;6.556;2022-12-05T08:46:22;7.70;99.90
55036;DHT22;40936;53.008;6.556;2022-12-05T08:48:48;8.20;99.90
55036;DHT22;40936;53.008;6.556;2022-12-05T08:51:13;8.00;99.90
55036;DHT22;40936;53.008;6.556;2022-12-05T08:53:39;7.70;99.90
55036;DHT22;40936;53.008;6.556;2022-12-05T08:56:07;9.30;99.90
55036;DHT22;40936;53.008;6.556;2022-12-05T08:58:33;7.70;99.90
55036;DHT22;40936;53.008;6.556;2022-12-05T09:01:10;8.20;99.90
55036;DHT22;40936;53.008;6.556;2022-12-05T09:03:37;7.80;99.90
55036;DHT22;40936;53.008;6.556;2022-12-05T09:08:41;7.70;99.90
55036;DHT22;40936;53.008;6.556;2022-12-05T09:11:18;8.00;99.90
55036;DHT22;40936;53.008;6.556;2022-12-05T09:13:45;7.40;99.90
55036;DHT22;40936;53.008;6.556;2022-12-05T09:16:22;7.70;99.90
55036;DHT22;40936;53.008;6.556;2022-12-05T09:18:49;6.70;99.90
55036;DHT22;40936;53.008;6.556;2022-12-05T09:21:23;7.70;99.90
55036;DHT22;40936;53.008;6.556;2022-12-05T09:23:50;7.70;99.90
55036;DHT22;40936;53.008;6.556;2022-12-05T09:26:19;7.70;99.90
55036;DHT22;40936;53.008;6.556;2022-12-05T09:28:45;8.70;99.90
55036;DHT22;40936;53.008;6.556;2022-12-05T09:31:16;7.70;99.90
55036;DHT22;40936;53.008;6.556;2022-12-05T09:33:42;8.70;99.90
55036;DHT22;40936;53.008;6.556;2022-12-05T09:36:18;7.70;99.90
55036;DHT22;40936;53.008;6.556;2022-12-05T09:38:44;7.70;99.90
55036;DHT22;40936;53.008;6.556;2022-12-05T09:50:00;7.80;99.90
55036;DHT22;40936;53.008;6.556;2022-12-05T09:52:30;7.80;99.90
55036;DHT22;40936;53.008;6.556;2022-12-05T09:55:05;9.40;99.90
55036;DHT22;40936;53.008;6.556;2022-12-05T09:57:46;7.80;99.90
55036;DHT22;40936;53.008;6.556;2022-12-05T10:00:13;7.70;99.90
55036;DHT22;40936;53.008;6.556;2022-12-05T10:03:11;7.70;99.90
55036;DHT22;40936;53.008;6.556;2022-12-05T10:05:54;7.70;99.90
55036;DHT22;40936;53.008;6.556;2022-12-05T10:08:28;7.80;99.90
55036;DHT22;40936;53.008;6.556;2022-12-05T10:11:00;7.80;99.90
55036;DHT22;40936;53.008;6.556;2022-12-05T10:16:16;7.80;99.90
55036;DHT22;40936;53.008;6.556;2022-12-05T10:18:53;8.40;99.90
55036;DHT22;40936;53.008;6.556;2022-12-05T10:21:31;7.80;99.90
55036;DHT22;40936;53.008;6.556;2022-12-05T10:23:59;7.80;99.90
55036;DHT22;40936;53.008;6.556;2022-12-05T10:26:45;9.60;99.90
55036;DHT22;40936;53.008;6.556;2022-12-05T10:31:47;7.70;99.90
55036;DHT22;40936;53.008;6.556;2022-12-05T10:34:36;7.80;99.90
55036;DHT22;40936;53.008;6.556;2022-12-05T10:37:22;7.80;99.90
55036;DHT22;40936;53.008;6.556;2022-12-05T10:39:49;7.80;99.90
55036;DHT22;40936;53.008;6.556;2022-12-05T10:42:26;9.50;99.90
55036;DHT22;40936;53.008;6.556;2022-12-05T10:44:59;7.90;99.90
55036;DHT22;40936;53.008;6.556;2022-12-05T10:47:27;9.70;99.90
55036;DHT22;40936;53.008;6.556;2022-12-05T10:49:55;7.80;99.90
55036;DHT22;40936;53.008;6.556;2022-12-05T10:52:23;7.90;99.90
55036;DHT22;40936;53.008;6.556;2022-12-05T10:54:55;9.10;99.90
55036;DHT22;40936;53.008;6.556;2022-12-05T10:57:28;7.80;99.90
55036;DHT22;40936;53.008;6.556;2022-12-05T10:59:55;8.80;99.90
55036;DHT22;40936;53.008;6.556;2022-12-05T11:02:25;7.90;99.90
55036;DHT22;40936;53.008;6.556;2022-12-05T11:04:51;8.30;99.90
55036;DHT22;40936;53.008;6.556;2022-12-05T11:07:28;9.30;99.90
55036;DHT22;40936;53.008;6.556;2022-12-05T11:09:55;9.90;99.90
55036;DHT22;40936;53.008;6.556;2022-12-05T11:12:24;7.90;99.90
55036;DHT22;40936;53.008;6.556;2022-12-05T11:15:19;10.40;99.90
55036;DHT22;40936;53.008;6.556;2022-12-05T11:17:44;7.80;99.90
55036;DHT22;40936;53.008;6.556;2022-12-05T11:22:43;7.90;99.90
55036;DHT22;40936;53.008;6.556;2022-12-05T11:25:27;8.00;99.90
55036;DHT22;40936;53.008;6.556;2022-12-05T11:27:55;7.80;99.90
55036;DHT22;40936;53.008;6.556;2022-12-05T11:30:22;8.00;99.90
55036;DHT22;40936;53.008;6.556;2022-12-05T11:32:49;8.00;99.90
55036;DHT22;40936;53.008;6.556;2022-12-05T11:37:46;9.70;99.90
55036;DHT22;40936;53.008;6.556;2022-12-05T11:40:23;9.90;99.90
55036;DHT22;40936;53.008;6.556;2022-12-05T11:43:17;7.90;99.90
55036;DHT22;40936;53.008;6.556;2022-12-05T11:54:20;8.90;99.90
55036;DHT22;40936;53.008;6.556;2022-12-05T11:56:57;8.10;99.90
55036;DHT22;40936;53.008;6.556;2022-12-05T12:16:16;7.60;99.90
55036;DHT22;40936;53.008;6.556;2022-12-05T12:21:47;8.10;99.90
55036;DHT22;40936;53.008;6.556;2022-12-05T12:32:44;8.10;99.90
55036;DHT22;40936;53.008;6.556;2022-12-05T12:35:28;8.10;99.90
55036;DHT22;40936;53.008;6.556;2022-12-05T12:38:10;8.30;99.90
55036;DHT22;40936;53.008;6.556;2022-12-05T12:43:36;8.10;99.90
55036;DHT22;40936;53.008;6.556;2022-12-05T12:48:42;8.10;99.90
55036;DHT22;40936;53.008;6.556;2022-12-05T12:51:13;8.10;99.90
55036;DHT22;40936;53.008;6.556;2022-12-05T13:01:50;8.10;99.90
55036;DHT22;40936;53.008;6.556;2022-12-05T13:04:52;8.10;99.90
55036;DHT22;40936;53.008;6.556;2022-12-05T13:07:42;8.10;99.90
55036;DHT22;40936;53.008;6.556;2022-12-05T13:12:54;8.10;99.90
55036;DHT22;40936;53.008;6.556;2022-12-05T13:15:32;8.60;99.90
55036;DHT22;40936;53.008;6.556;2022-12-05T13:17:59;8.30;99.90
55036;DHT22;40936;53.008;6.556;2022-12-05T13:20:29;8.00;99.90
55036;DHT22;40936;53.008;6.556;2022-12-05T13:22:57;8.10;99.90
55036;DHT22;40936;53.008;6.556;2022-12-05T13:25:28;8.50;99.90
55036;DHT22;40936;53.008;6.556;2022-12-05T13:28:00;8.00;99.90
55036;DHT22;40936;53.008;6.556;2022-12-05T13:30:27;8.00;99.90
55036;DHT22;40936;53.008;6.556;2022-12-05T13:32:57;8.10;99.90
55036;DHT22;40936;53.008;6.556;2022-12-05T13:35:53;8.00;99.90
55036;DHT22;40936;53.008;6.556;2022-12-05T13:38:39;8.00;99.90
55036;DHT22;40936;53.008;6.556;2022-12-05T13:42:00;8.00;99.90
55036;DHT22;40936;53.008;6.556;2022-12-05T13:47:22;7.80;99.90
55036;DHT22;40936;53.008;6.556;2022-12-05T13:49:53;8.50;99.90
55036;DHT22;40936;53.008;6.556;2022-12-05T13:52:27;8.10;99.90
55036;DHT22;40936;53.008;6.556;2022-12-05T13:55:00;8.00;99.90
55036;DHT22;40936;53.008;6.556;2022-12-05T13:57:49;9.30;99.90
55036;DHT22;40936;53.008;6.556;2022-12-05T14:07:43;8.00;99.90
55036;DHT22;40936;53.008;6.556;2022-12-05T14:10:21;8.20;99.90
55036;DHT22;40936;53.008;6.556;2022-12-05T14:13:02;8.00;99.90
55036;DHT22;40936;53.008;6.556;2022-12-05T14:15:44;8.00;99.90
55036;DHT22;40936;53.008;6.556;2022-12-05T14:32:09;8.00;1.00
55036;DHT22;40936;53.008;6.556;2022-12-05T14:34:53;8.00;1.00
55036;DHT22;40936;53.008;6.556;2022-12-05T14:37:26;8.00;1.00
55036;DHT22;40936;53.008;6.556;2022-12-05T14:39:57;8.80;1.00
55036;DHT22;40936;53.008;6.556;2022-12-05T14:45:35;7.90;1.00
55036;DHT22;40936;53.008;6.556;2022-12-05T14:48:21;7.90;1.00
55036;DHT22;40936;53.008;6.556;2022-12-05T14:50:49;8.00;1.00
55036;DHT22;40936;53.008;6.556;2022-12-05T14:53:29;8.10;1.00
55036;DHT22;40936;53.008;6.556;2022-12-05T14:56:19;7.90;1.00
55036;DHT22;40936;53.008;6.556;2022-12-05T15:06:33;8.70;1.00
55036;DHT22;40936;53.008;6.556;2022-12-05T15:09:04;8.70;1.00
55036;DHT22;40936;53.008;6.556;2022-12-05T15:11:32;7.90;1.00
55036;DHT22;40936;53.008;6.556;2022-12-05T15:14:19;8.90;1.00
55036;DHT22;40936;53.008;6.556;2022-12-05T15:16:49;7.90;1.00
55036;DHT22;40936;53.008;6.556;2022-12-05T15:19:29;9.80;1.00
55036;DHT22;40936;53.008;6.556;2022-12-05T15:21:59;7.90;1.00
55036;DHT22;40936;53.008;6.556;2022-12-05T15:24:25;7.90;1.00
55036;DHT22;40936;53.008;6.556;2022-12-05T15:26:56;7.90;1.00
55036;DHT22;40936;53.008;6.556;2022-12-05T15:29:23;7.90;1.00
55036;DHT22;40936;53.008;6.556;2022-12-05T15:32:00;7.90;1.00
55036;DHT22;40936;53.008;6.556;2022-12-05T15:39:59;7.90;1.00
55036;DHT22;40936;53.008;6.556;2022-12-05T15:42:28;7.80;1.00
55036;DHT22;40936;53.008;6.556;2022-12-05T15:45:16;7.90;1.00
55036;DHT22;40936;53.008;6.556;2022-12-05T15:47:56;9.30;1.00
55036;DHT22;40936;53.008;6.556;2022-12-05T15:50:48;7.90;1.00
55036;DHT22;40936;53.008;6.556;2022-12-05T15:53:24;7.80;1.00
55036;DHT22;40936;53.008;6.556;2022-12-05T15:56:14;8.10;1.00
55036;DHT22;40936;53.008;6.556;2022-12-05T15:58:45;7.90;1.00
55036;DHT22;40936;53.008;6.556;2022-12-05T16:01:21;8.20;1.00
55036;DHT22;40936;53.008;6.556;2022-12-05T16:04:02;7.90;1.00
55036;DHT22;40936;53.008;6.556;2022-12-05T16:06:51;8.30;1.00
55036;DHT22;40936;53.008;6.556;2022-12-05T16:09:21;7.70;1.00
55036;DHT22;40936;53.008;6.556;2022-12-05T16:12:17;8.80;1.00
55036;DHT22;40936;53.008;6.556;2022-12-05T16:14:43;7.80;1.00
55036;DHT22;40936;53.008;6.556;2022-12-05T16:17:15;7.80;7.30
55036;DHT22;40936;53.008;6.556;2022-12-05T16:19:41;6.50;19.30
55036;DHT22;40936;53.008;6.556;2022-12-05T16:22:20;8.90;1.00
55036;DHT22;40936;53.008;6.556;2022-12-05T16:25:00;7.90;13.80
55036;DHT22;40936;53.008;6.556;2022-12-05T16:27:30;7.20;37.30
55036;DHT22;40936;53.008;6.556;2022-12-05T16:30:17;7.80;19.50
55036;DHT22;40936;53.008;6.556;2022-12-05T16:32:46;7.80;23.30
55036;DHT22;40936;53.008;6.556;2022-12-05T16:35:33;8.10;34.00
55036;DHT22;40936;53.008;6.556;2022-12-05T16:38:10;7.80;50.30
55036;DHT22;40936;53.008;6.556;2022-12-05T16:45:57;7.90;27.50
55036;DHT22;40936;53.008;6.556;2022-12-05T16:48:30;7.80;44.90
55036;DHT22;40936;53.008;6.556;2022-12-05T16:51:23;8.20;50.80
55036;DHT22;40936;53.008;6.556;2022-12-05T16:53:54;7.80;47.30
55036;DHT22;40936;53.008;6.556;2022-12-05T16:56:29;7.90;64.40
55036;DHT22;40936;53.008;6.556;2022-12-05T16:58:56;9.30;69.60
55036;DHT22;40936;53.008;6.556;2022-12-05T17:01:24;9.60;58.00
55036;DHT22;40936;53.008;6.556;2022-12-05T17:03:50;7.80;62.10
55036;DHT22;40936;53.008;6.556;2022-12-05T17:06:18;7.90;63.70
55036;DHT22;40936;53.008;6.556;2022-12-05T17:08:45;8.00;54.10
55036;DHT22;40936;53.008;6.556;2022-12-05T17:11:32;8.30;55.60
55036;DHT22;40936;53.008;6.556;2022-12-05T17:13:59;9.40;88.10
55036;DHT22;40936;53.008;6.556;2022-12-05T17:16:27;8.10;68.20
55036;DHT22;40936;53.008;6.556;2022-12-05T17:18:53;8.40;69.60
55036;DHT22;40936;53.008;6.556;2022-12-05T17:21:21;7.80;84.50
55036;DHT22;40936;53.008;6.556;2022-12-05T17:23:48;8.50;62.90
55036;DHT22;40936;53.008;6.556;2022-12-05T17:26:16;7.80;93.80
55036;DHT22;40936;53.008;6.556;2022-12-05T17:28:42;7.80;99.90
55036;DHT22;40936;53.008;6.556;2022-12-05T17:31:13;7.90;99.90
55036;DHT22;40936;53.008;6.556;2022-12-05T17:33:41;7.80;99.90
55036;DHT22;40936;53.008;6.556;2022-12-05T17:36:07;8.60;99.90
55036;DHT22;40936;53.008;6.556;2022-12-05T17:38:32;7.80;99.90
55036;DHT22;40936;53.008;6.556;2022-12-05T17:43:24;7.90;99.90
55036;DHT22;40936;53.008;6.556;2022-12-05T17:48:17;7.80;99.90
55036;DHT22;40936;53.008;6.556;2022-12-05T17:50:45;7.80;99.90
55036;DHT22;40936;53.008;6.556;2022-12-05T17:53:14;7.70;99.90
55036;DHT22;40936;53.008;6.556;2022-12-05T17:58:07;7.40;99.90
55036;DHT22;40936;53.008;6.556;2022-12-05T18:00:33;7.70;99.90
55036;DHT22;40936;53.008;6.556;2022-12-05T18:02:59;9.80;99.90
55036;DHT22;40936;53.008;6.556;2022-12-05T18:05:24;8.70;99.90
55036;DHT22;40936;53.008;6.556;2022-12-05T18:07:50;7.80;99.90
55036;DHT22;40936;53.008;6.556;2022-12-05T18:10:18;7.70;99.90
55036;DHT22;40936;53.008;6.556;2022-12-05T18:12:49;7.80;99.90
55036;DHT22;40936;53.008;6.556;2022-12-05T18:15:15;7.90;99.90
55036;DHT22;40936;53.008;6.556;2022-12-05T18:17:42;7.90;99.90
55036;DHT22;40936;53.008;6.556;2022-12-05T18:20:10;6.40;99.90
55036;DHT22;40936;53.008;6.556;2022-12-05T18:22:36;7.70;99.90
55036;DHT22;40936;53.008;6.556;2022-12-05T18:25:03;7.80;99.90
55036;DHT22;40936;53.008;6.556;2022-12-05T18:27:29;7.80;99.90
55036;DHT22;40936;53.008;6.556;2022-12-05T18:29:56;7.70;99.90
55036;DHT22;40936;53.008;6.556;2022-12-05T18:32:22;7.80;99.90
55036;DHT22;40936;53.008;6.556;2022-12-05T18:34:49;7.70;99.90
55036;DHT22;40936;53.008;6.556;2022-12-05T18:37:15;7.70;99.90
55036;DHT22;40936;53.008;6.556;2022-12-05T18:42:09;7.70;99.90
55036;DHT22;40936;53.008;6.556;2022-12-05T18:44:35;7.80;99.90
55036;DHT22;40936;53.008;6.556;2022-12-05T18:47:01;8.30;99.90
55036;DHT22;40936;53.008;6.556;2022-12-05T18:49:27;7.80;99.90
55036;DHT22;40936;53.008;6.556;2022-12-05T18:51:53;8.40;99.90
55036;DHT22;40936;53.008;6.556;2022-12-05T18:54:21;8.90;99.90
55036;DHT22;40936;53.008;6.556;2022-12-05T18:59:19;7.70;99.90
55036;DHT22;40936;53.008;6.556;2022-12-05T19:01:46;7.80;99.90